Flight Track Log - Related Links

Times and Time Zones

All times are in EDT time to prevent confusion due to time zone crossing. See the N465TP flight status page for this flight to view local times or setup timezone preferences in your user account.

Time Position Orientation Groundspeed Altitude Reporting Facility
EDT Latitude Longitude Course Direction KTS MPH feet Rate Location/Type
Thu 06:38:57 PM 44.5397 -108.8697 81° East 156 180 8,900  Level Salt Lake Center
Thu 06:39:58 PM 44.5475 -108.8028 81° East 164 189 10,100 1,268 Climbing Salt Lake Center
Thu 06:41:00 PM 44.5564 -108.7317 80° East 175 201 11,500 1,452 Climbing Salt Lake Center
Thu 06:42:02 PM 44.5647 -108.6606 81° East 182 209 13,100 1,403 Climbing Salt Lake Center
Thu 06:43:04 PM 44.5736 -108.5911 80° East 182 209 14,400 1,403 Climbing Salt Lake Center
Thu 06:44:06 PM 44.5836 -108.5061 81° East 184 212 16,000 1,317 Climbing Salt Lake Center
Thu 06:45:07 PM 44.5919 -108.4325 81° East 187 215 17,100 1,073 Climbing Salt Lake Center
Thu 06:46:09 PM 44.6008 -108.3561 81° East 193 222 18,200 1,065 Climbing Salt Lake Center
Thu 06:47:11 PM 44.6094 -108.2767 81° East 202 232 19,300 1,113 Climbing Salt Lake Center
Thu 06:48:13 PM 44.6183 -108.1986 81° East 204 235 20,500 829 Climbing Salt Lake Center
Thu 06:49:14 PM 44.6275 -108.1147 81° East 213 245 21,000 244 Climbing Salt Lake Center
Thu 06:50:16 PM 44.6367 -108.0200 82° East 232 267 21,000  Level Salt Lake Center
Thu 06:51:18 PM 44.6511 -107.8997 80° East 252 290 21,000  Level Salt Lake Center
Thu 06:52:20 PM 44.6628 -107.7981 81° East 262 302 21,000  Level Salt Lake Center
Thu 06:53:21 PM 44.6747 -107.6967 81° East 265 305 21,000  Level Salt Lake Center
Thu 06:54:23 PM 44.6869 -107.5964 80° East 264 304 21,000  Level Salt Lake Center
Thu 06:55:25 PM 44.6981 -107.4953 81° East 264 304 21,000  Level Salt Lake Center
Thu 06:56:26 PM 44.7114 -107.3717 81° East 267 307 21,000  Level Salt Lake Center
Thu 06:57:28 PM 44.7233 -107.2708 81° East 266 306 21,000  Level Salt Lake Center
Thu 06:58:30 PM 44.7339 -107.1697 82° East 263 303 21,000  Level Salt Lake Center
Thu 06:59:32 PM 44.7453 -107.0697 81° East 262 302 21,000  Level Salt Lake Center
Thu 07:00:33 PM 44.7553 -106.9692 82° East 262 302 21,000  Level Salt Lake Center
Thu 07:01:35 PM 44.7669 -106.8692 81° East 260 299 21,000  Level Salt Lake Center
Thu 07:02:37 PM 44.7792 -106.7492 82° East 260 299 21,000  Level Salt Lake Center
Thu 07:03:38 PM 44.7894 -106.6475 82° East 262 302 21,000  Level Salt Lake Center
Thu 07:04:40 PM 44.8000 -106.5475 82° East 261 300 21,000  Level Salt Lake Center
Thu 07:05:42 PM 44.8103 -106.4467 82° East 262 302 21,000  Level Salt Lake Center
Thu 07:06:43 PM 44.8208 -106.3447 82° East 262 302 21,000  Level Salt Lake Center
Thu 07:07:45 PM 44.8303 -106.2419 83° East 265 305 21,000  Level Salt Lake Center
Thu 07:08:47 PM 44.8406 -106.1422 82° East 260 299 21,000  Level Salt Lake Center
Thu 07:09:48 PM 44.8525 -106.0197 82° East 262 302 21,000  Level Salt Lake Center
Thu 07:10:42 PM 44.8589 -105.9389 84° East 264 304 21,000  Level Denver Center
Thu 07:11:44 PM 44.8689 -105.8367 82° East 264 304 21,000  Level Denver Center
Thu 07:12:46 PM 44.8783 -105.7344 83° East 264 304 21,000 -779 Level Denver Center
Thu 07:13:55 PM 44.8897 -105.6133 82° East 259 298 19,300 -1,466 Descending Salt Lake Center
Thu 07:14:57 PM 44.8986 -105.5169 83° East 252 290 17,800 -1,597 Descending Salt Lake Center
Thu 07:15:59 PM 44.9083 -105.4253 81° East 242 278 16,000 -1,742 Descending Salt Lake Center

Login

Don't have an account? Register now (free) for customized features, flight alerts, and more!